createdAt,value
2018-08-28T00:01:09.467Z,2.30
2018-08-28T00:03:37.641Z,2.43
2018-08-28T00:06:05.932Z,2.43
2018-08-28T00:08:34.080Z,2.17
2018-08-28T00:11:02.248Z,2.40
2018-08-28T00:13:30.394Z,2.37
2018-08-28T00:15:58.724Z,2.30
2018-08-28T00:18:26.880Z,2.10
2018-08-28T00:20:55.051Z,2.17
2018-08-28T00:23:23.212Z,2.43
2018-08-28T00:25:51.369Z,2.40
2018-08-28T00:28:19.535Z,2.13
2018-08-28T00:30:47.766Z,2.40
2018-08-28T00:33:16.264Z,2.40
2018-08-28T00:35:44.431Z,2.33
2018-08-28T00:38:12.717Z,2.33
2018-08-28T00:40:40.880Z,2.07
2018-08-28T00:43:09.061Z,2.20
2018-08-28T00:45:37.246Z,2.27
2018-08-28T00:48:05.407Z,2.47
2018-08-28T00:50:33.651Z,2.60
2018-08-28T00:53:01.864Z,2.47
2018-08-28T00:55:30.189Z,2.50
2018-08-28T00:57:58.363Z,2.50
2018-08-28T01:00:26.503Z,2.30
2018-08-28T01:02:54.682Z,2.50
2018-08-28T01:05:23.630Z,2.30
2018-08-28T01:07:52.313Z,2.40
2018-08-28T01:10:20.503Z,2.57
2018-08-28T01:12:48.657Z,2.50
2018-08-28T01:15:16.846Z,2.40
2018-08-28T01:17:45.012Z,2.70
2018-08-28T01:20:13.204Z,2.60
2018-08-28T01:22:41.727Z,2.37
2018-08-28T01:25:09.889Z,2.50
2018-08-28T01:27:38.199Z,2.20
2018-08-28T01:30:06.441Z,2.27
2018-08-28T01:32:34.696Z,2.60
2018-08-28T01:35:03.194Z,2.60
2018-08-28T01:37:31.346Z,2.80
2018-08-28T01:39:59.500Z,2.70
2018-08-28T01:42:27.679Z,2.40
2018-08-28T01:44:55.845Z,2.67
2018-08-28T01:47:24.064Z,2.67
2018-08-28T01:49:52.355Z,2.37
2018-08-28T01:52:21.430Z,2.70
2018-08-28T01:54:49.708Z,2.60
2018-08-28T01:57:17.885Z,2.47
2018-08-28T01:59:46.044Z,2.63
2018-08-28T02:02:14.228Z,2.80
2018-08-28T02:04:42.468Z,2.37
2018-08-28T02:07:10.884Z,2.50
2018-08-28T02:09:39.065Z,2.80
2018-08-28T02:12:07.411Z,2.83
2018-08-28T02:14:35.564Z,2.60
2018-08-28T02:17:03.738Z,2.93
2018-08-28T02:19:31.920Z,2.67
2018-08-28T02:22:00.087Z,2.63
2018-08-28T02:24:28.268Z,2.67
2018-08-28T02:26:56.444Z,2.60
2018-08-28T02:29:24.628Z,2.70
2018-08-28T02:31:52.819Z,2.97
2018-08-28T02:34:20.984Z,2.70
2018-08-28T02:36:49.156Z,2.70
2018-08-28T02:39:17.453Z,2.80
2018-08-28T02:41:45.637Z,2.50
2018-08-28T02:44:13.808Z,2.33
2018-08-28T02:46:41.996Z,2.40
2018-08-28T02:49:10.179Z,2.50
2018-08-28T02:51:38.446Z,3.40
2018-08-28T02:54:06.648Z,3.00
2018-08-28T02:56:35.110Z,2.97
2018-08-28T02:59:03.285Z,2.87
2018-08-28T03:01:31.460Z,2.80
2018-08-28T03:03:59.937Z,2.60
2018-08-28T03:06:28.096Z,2.80
2018-08-28T03:08:56.287Z,3.13
2018-08-28T03:11:24.508Z,3.40
2018-08-28T03:13:52.630Z,3.63
2018-08-28T03:16:20.808Z,3.10
2018-08-28T03:18:48.976Z,3.03
2018-08-28T03:21:17.130Z,2.30
2018-08-28T03:23:45.627Z,2.40
2018-08-28T03:26:13.783Z,3.13
2018-08-28T03:28:41.978Z,2.83
2018-08-28T03:31:10.384Z,2.70
2018-08-28T03:33:38.532Z,2.70
2018-08-28T03:36:06.707Z,2.87
2018-08-28T03:38:34.900Z,2.90
2018-08-28T03:41:03.059Z,3.00
2018-08-28T03:43:31.232Z,3.40
2018-08-28T03:45:59.376Z,3.10
2018-08-28T03:48:27.539Z,3.50
2018-08-28T03:50:55.711Z,3.10
2018-08-28T03:53:23.888Z,3.37
2018-08-28T03:55:52.051Z,3.30
2018-08-28T03:58:20.224Z,2.80
2018-08-28T04:00:48.378Z,3.30
2018-08-28T04:03:16.566Z,3.60
2018-08-28T04:05:44.731Z,3.40
2018-08-28T04:08:12.934Z,3.13
2018-08-28T04:10:41.121Z,3.37
2018-08-28T04:13:09.264Z,2.90
2018-08-28T04:15:37.431Z,3.00
2018-08-28T04:18:05.635Z,3.07
2018-08-28T04:20:33.783Z,3.30
2018-08-28T04:23:02.012Z,3.23
2018-08-28T04:25:30.188Z,3.20
2018-08-28T04:27:58.359Z,3.20
2018-08-28T04:30:26.632Z,3.10
2018-08-28T04:32:54.784Z,3.10
2018-08-28T04:35:22.988Z,2.90
2018-08-28T04:37:51.130Z,3.10
2018-08-28T04:40:19.300Z,3.10
2018-08-28T04:42:47.581Z,2.80
2018-08-28T04:45:15.859Z,3.10
2018-08-28T04:47:44.037Z,3.13
2018-08-28T04:50:12.195Z,3.03
2018-08-28T04:52:40.376Z,3.17
2018-08-28T04:55:08.648Z,3.33
2018-08-28T04:57:37.002Z,3.20
2018-08-28T05:00:06.279Z,2.97
2018-08-28T05:02:36.522Z,3.33
2018-08-28T05:05:07.719Z,3.47
2018-08-28T05:07:35.926Z,3.03
2018-08-28T05:10:04.519Z,3.43
2018-08-28T05:12:32.678Z,3.73
2018-08-28T05:15:00.864Z,3.40
2018-08-28T05:17:29.032Z,3.60
2018-08-28T05:19:57.213Z,3.50
2018-08-28T05:22:25.751Z,3.90
2018-08-28T05:24:54.004Z,3.73
2018-08-28T05:27:22.409Z,3.70
2018-08-28T05:29:50.590Z,3.60
2018-08-28T05:32:18.781Z,3.80
2018-08-28T05:34:46.947Z,3.67
2018-08-28T05:37:15.335Z,3.70
2018-08-28T05:39:43.495Z,3.93
2018-08-28T05:42:11.662Z,3.50
2018-08-28T05:44:39.864Z,3.80
2018-08-28T05:47:08.239Z,3.87
2018-08-28T05:49:36.591Z,3.73
2018-08-28T05:52:04.622Z,3.97
2018-08-28T05:54:33.078Z,4.03
2018-08-28T05:57:01.242Z,3.83
2018-08-28T05:59:29.405Z,3.53
2018-08-28T06:01:57.651Z,3.47
2018-08-28T06:04:25.829Z,3.10
2018-08-28T06:06:54.007Z,3.90
2018-08-28T06:09:22.412Z,3.70
2018-08-28T06:11:50.724Z,4.10
2018-08-28T06:14:18.932Z,4.53
2018-08-28T06:16:47.107Z,4.23
2018-08-28T06:19:15.281Z,4.10
2018-08-28T06:21:43.521Z,3.20
2018-08-28T06:24:11.688Z,3.93
2018-08-28T06:26:40.068Z,4.30
2018-08-28T06:29:08.339Z,4.30
2018-08-28T06:31:36.824Z,3.80
2018-08-28T06:34:05.078Z,3.77
2018-08-28T06:36:33.186Z,3.80
2018-08-28T06:39:01.363Z,3.60
2018-08-28T06:41:29.649Z,4.10
2018-08-28T06:43:57.946Z,4.10
2018-08-28T06:46:26.013Z,3.90
2018-08-28T06:48:54.424Z,3.67
2018-08-28T06:51:22.610Z,4.03
2018-08-28T06:53:50.768Z,3.27
2018-08-28T06:56:19.323Z,3.17
2018-08-28T06:58:47.487Z,3.80
2018-08-28T07:01:15.674Z,3.90
2018-08-28T07:03:43.865Z,3.87
2018-08-28T07:06:12.040Z,3.80
2018-08-28T07:08:40.223Z,3.40
2018-08-28T07:11:08.419Z,4.00
2018-08-28T07:13:36.599Z,3.40
2018-08-28T07:16:04.791Z,3.30
2018-08-28T07:18:33.002Z,4.07
2018-08-28T07:21:01.149Z,3.60
2018-08-28T07:23:29.400Z,3.53
2018-08-28T07:25:57.617Z,3.13
2018-08-28T07:28:26.056Z,3.60
2018-08-28T07:30:54.224Z,3.93
2018-08-28T07:33:22.402Z,3.40
2018-08-28T07:35:50.614Z,4.00
2018-08-28T07:38:18.975Z,4.27
2018-08-28T07:40:47.193Z,4.20
2018-08-28T07:43:15.380Z,4.30
2018-08-28T07:45:43.546Z,4.80
2018-08-28T07:48:11.796Z,4.53
2018-08-28T07:50:39.952Z,4.30
2018-08-28T07:53:08.183Z,4.30
2018-08-28T07:55:36.359Z,4.20
2018-08-28T07:58:04.569Z,4.60
2018-08-28T08:00:32.751Z,4.97
2018-08-28T08:03:00.916Z,5.17
2018-08-28T08:05:29.129Z,3.90
2018-08-28T08:07:57.307Z,4.60
2018-08-28T08:10:25.464Z,5.00
2018-08-28T08:12:54.276Z,4.83
2018-08-28T08:15:22.448Z,4.53
2018-08-28T08:17:50.618Z,4.93
2018-08-28T08:20:18.795Z,5.33
2018-08-28T08:22:46.967Z,5.50
2018-08-28T08:25:15.145Z,6.47
2018-08-28T08:27:43.369Z,6.67
2018-08-28T08:30:11.531Z,7.08
2018-08-28T08:32:39.736Z,6.90
2018-08-28T08:35:08.041Z,7.45
2018-08-28T08:37:36.216Z,7.67
2018-08-28T08:40:04.379Z,8.43
2018-08-28T08:42:32.522Z,7.87
2018-08-28T08:45:00.772Z,7.80
2018-08-28T08:47:28.887Z,8.10
2018-08-28T08:49:57.056Z,8.53
2018-08-28T08:52:25.227Z,8.65
2018-08-28T08:54:53.422Z,7.90
2018-08-28T08:57:21.614Z,7.65
2018-08-28T08:59:49.768Z,8.95
2018-08-28T09:02:17.944Z,8.35
2018-08-28T09:04:46.120Z,8.98
2018-08-28T09:07:14.291Z,9.48
2018-08-28T09:09:42.737Z,8.68
2018-08-28T09:12:10.926Z,8.93
2018-08-28T09:14:39.108Z,9.40
2018-08-28T09:17:08.526Z,9.58
2018-08-28T09:19:36.687Z,8.98
2018-08-28T09:22:04.866Z,9.78
2018-08-28T09:24:33.036Z,9.28
2018-08-28T09:27:01.287Z,9.05
2018-08-28T09:29:29.692Z,9.68
2018-08-28T09:31:57.908Z,9.60
2018-08-28T09:34:26.073Z,9.73
2018-08-28T09:36:54.295Z,8.85
2018-08-28T09:39:22.484Z,9.73
2018-08-28T09:41:50.661Z,8.55
2018-08-28T09:44:18.847Z,9.98
2018-08-28T09:46:47.028Z,8.93
2018-08-28T09:49:15.199Z,9.40
2018-08-28T09:51:43.381Z,9.00
2018-08-28T09:54:11.555Z,8.88
2018-08-28T09:56:39.805Z,9.75
2018-08-28T09:59:07.915Z,9.20
2018-08-28T10:01:42.927Z,9.18
2018-08-28T10:04:11.755Z,9.60
2018-08-28T10:06:39.961Z,9.78
2018-08-28T10:09:10.773Z,10.00
2018-08-28T10:11:39.254Z,9.43
2018-08-28T10:14:07.578Z,9.83
2018-08-28T10:16:36.099Z,10.05
2018-08-28T10:19:04.408Z,9.80
2018-08-28T10:21:32.592Z,9.28
2018-08-28T10:24:00.774Z,9.80
2018-08-28T10:26:29.355Z,9.50
2018-08-28T10:28:57.559Z,9.98
2018-08-28T10:31:25.915Z,10.30
2018-08-28T10:33:54.103Z,10.32
2018-08-28T10:36:22.287Z,9.63
2018-08-28T10:38:50.547Z,10.40
2018-08-28T10:41:18.752Z,10.53
2018-08-28T10:43:46.961Z,10.82
2018-08-28T10:46:15.262Z,10.53
2018-08-28T10:48:43.313Z,10.50
2018-08-28T10:51:11.540Z,10.13
2018-08-28T10:53:39.716Z,10.72
2018-08-28T10:56:07.890Z,11.22
2018-08-28T10:58:36.108Z,10.05
2018-08-28T11:01:04.250Z,10.05
2018-08-28T11:03:32.416Z,10.18
2018-08-28T11:06:00.591Z,10.70
2018-08-28T11:08:28.789Z,10.65
2018-08-28T11:10:56.993Z,10.60
2018-08-28T11:13:25.548Z,10.08
2018-08-28T11:15:53.718Z,10.55
2018-08-28T11:18:21.911Z,10.53
2018-08-28T11:20:50.088Z,10.32
2018-08-28T11:23:18.291Z,10.53
2018-08-28T11:25:46.460Z,10.63
2018-08-28T11:28:14.625Z,10.70
2018-08-28T11:30:42.775Z,10.68
2018-08-28T11:33:11.096Z,10.50
2018-08-28T11:35:39.282Z,9.85
2018-08-28T11:38:07.512Z,10.58
2018-08-28T11:40:35.670Z,9.93
2018-08-28T11:43:03.829Z,10.25
2018-08-28T11:45:32.032Z,10.13
2018-08-28T11:48:00.211Z,10.85
2018-08-28T11:50:28.369Z,10.38
2018-08-28T11:52:56.539Z,10.48
2018-08-28T11:55:24.718Z,10.25
2018-08-28T11:57:53.092Z,10.68
2018-08-28T12:00:21.253Z,9.93
2018-08-28T12:02:50.224Z,10.28
2018-08-28T12:05:18.477Z,10.15
2018-08-28T12:07:46.625Z,9.98
2018-08-28T12:10:14.756Z,10.18
2018-08-28T12:12:42.941Z,10.00
2018-08-28T12:15:11.104Z,10.03
2018-08-28T12:17:39.606Z,10.48
2018-08-28T12:20:09.447Z,10.35
2018-08-28T12:22:37.664Z,10.03
2018-08-28T12:25:06.261Z,10.28
2018-08-28T12:27:34.464Z,9.98
2018-08-28T12:30:02.713Z,9.98
2018-08-28T12:32:30.934Z,10.18
2018-08-28T12:34:59.096Z,11.08
2018-08-28T12:37:27.315Z,9.73
2018-08-28T12:39:55.584Z,9.35
2018-08-28T12:42:23.818Z,10.28
2018-08-28T12:44:51.991Z,10.25
2018-08-28T12:47:20.280Z,10.72
2018-08-28T12:49:48.512Z,10.30
2018-08-28T12:52:16.720Z,10.13
2018-08-28T12:54:45.230Z,9.63
2018-08-28T12:57:13.420Z,9.73
2018-08-28T12:59:41.715Z,10.13
2018-08-28T13:02:10.103Z,9.78
2018-08-28T13:04:38.349Z,9.85
2018-08-28T13:07:06.663Z,10.20
2018-08-28T13:09:35.015Z,9.40
2018-08-28T13:12:03.291Z,9.60
2018-08-28T13:14:31.874Z,9.88
2018-08-28T13:17:00.020Z,10.20
2018-08-28T13:19:28.225Z,10.38
2018-08-28T13:21:56.461Z,10.35
2018-08-28T13:24:24.662Z,9.98
2018-08-28T13:26:52.858Z,10.20
2018-08-28T13:29:21.042Z,9.80
2018-08-28T13:31:49.238Z,10.00
2018-08-28T13:34:17.460Z,10.55
2018-08-28T13:36:45.680Z,10.38
2018-08-28T13:39:13.959Z,9.70
2018-08-28T13:41:42.574Z,10.38
2018-08-28T13:44:11.060Z,9.90
2018-08-28T13:46:39.332Z,10.40
2018-08-28T13:49:07.546Z,9.50
2018-08-28T13:51:35.771Z,9.88
2018-08-28T13:54:04.010Z,10.38
2018-08-28T13:56:32.210Z,9.20
2018-08-28T13:59:00.446Z,10.50
2018-08-28T14:01:28.953Z,9.68
2018-08-28T14:03:57.153Z,10.60
2018-08-28T14:06:25.447Z,10.48
2018-08-28T14:08:53.680Z,10.03
2018-08-28T14:11:22.032Z,10.03
2018-08-28T14:13:50.272Z,9.50
2018-08-28T14:16:18.441Z,10.20
2018-08-28T14:18:46.654Z,10.75
2018-08-28T14:21:14.833Z,9.60
2018-08-28T14:23:43.087Z,9.88
2018-08-28T14:26:11.271Z,10.30
2018-08-28T14:28:39.486Z,10.82
2018-08-28T14:31:07.712Z,10.18
2018-08-28T14:33:35.970Z,9.63
2018-08-28T14:36:04.227Z,10.38
2018-08-28T14:38:32.396Z,10.70
2018-08-28T14:41:00.567Z,9.95
2018-08-28T14:43:28.738Z,9.90
2018-08-28T14:45:56.928Z,10.10
2018-08-28T14:48:25.096Z,9.58
2018-08-28T14:50:53.326Z,10.05
2018-08-28T14:53:21.503Z,9.33
2018-08-28T14:55:49.666Z,10.90
2018-08-28T14:58:17.893Z,10.65
2018-08-28T15:00:46.060Z,10.05
2018-08-28T15:03:14.231Z,10.18
2018-08-28T15:05:42.408Z,9.80
2018-08-28T15:08:10.582Z,9.30
2018-08-28T15:10:38.747Z,9.98
2018-08-28T15:13:06.957Z,10.40
2018-08-28T15:15:35.111Z,13.90
2018-08-28T15:18:03.284Z,13.35
2018-08-28T15:20:31.473Z,10.63
2018-08-28T15:22:59.651Z,10.18
2018-08-28T15:25:27.809Z,10.68
2018-08-28T15:27:55.975Z,9.68
2018-08-28T15:30:24.184Z,10.65
2018-08-28T15:32:52.369Z,10.25
2018-08-28T15:35:20.543Z,9.73
2018-08-28T15:37:48.721Z,9.65
2018-08-28T15:40:16.911Z,10.65
2018-08-28T15:42:45.082Z,10.45
2018-08-28T15:45:13.267Z,10.40
2018-08-28T15:47:41.435Z,9.83
2018-08-28T15:50:09.619Z,9.90
2018-08-28T15:52:37.800Z,9.78
2018-08-28T15:55:06.189Z,10.28
2018-08-28T15:57:34.596Z,10.03
2018-08-28T16:00:02.812Z,10.20
2018-08-28T16:02:30.976Z,10.40
2018-08-28T16:04:59.171Z,9.45
2018-08-28T16:07:27.352Z,10.13
2018-08-28T16:09:55.540Z,9.60
2018-08-28T16:12:23.711Z,9.85
2018-08-28T16:14:51.906Z,9.73
2018-08-28T16:17:20.138Z,10.48
2018-08-28T16:19:48.352Z,10.15
2018-08-28T16:22:21.118Z,9.78
2018-08-28T16:24:49.293Z,9.90
2018-08-28T16:27:17.475Z,10.00
2018-08-28T16:29:45.677Z,10.28
2018-08-28T16:32:13.845Z,9.28
2018-08-28T16:34:42.020Z,10.53
2018-08-28T16:37:10.294Z,10.00
2018-08-28T16:39:38.512Z,10.63
2018-08-28T16:42:06.730Z,10.82
2018-08-28T16:44:34.899Z,9.98
2018-08-28T16:47:03.072Z,9.75
2018-08-28T16:49:31.263Z,10.10
2018-08-28T16:51:59.435Z,10.18
2018-08-28T16:54:27.624Z,10.55
2018-08-28T16:56:55.800Z,10.90
2018-08-28T16:59:23.968Z,11.05
2018-08-28T17:01:52.163Z,10.75
2018-08-28T17:04:20.311Z,10.38
2018-08-28T17:06:48.495Z,10.25
2018-08-28T17:09:16.683Z,10.65
2018-08-28T17:11:44.851Z,10.28
2018-08-28T17:14:13.066Z,10.08
2018-08-28T17:16:41.247Z,9.20
2018-08-28T17:19:09.447Z,9.90
2018-08-28T17:21:38.390Z,10.23
2018-08-28T17:24:06.643Z,10.30
2018-08-28T17:26:34.820Z,9.85
2018-08-28T17:29:02.975Z,10.10
2018-08-28T17:31:31.162Z,10.03
2018-08-28T17:33:59.332Z,9.85
2018-08-28T17:36:27.507Z,10.20
2018-08-28T17:38:55.676Z,10.78
2018-08-28T17:41:23.851Z,12.53
2018-08-28T17:43:52.045Z,11.23
2018-08-28T17:46:20.208Z,10.98
2018-08-28T17:48:48.415Z,10.93
2018-08-28T17:51:16.543Z,9.98
2018-08-28T17:53:44.719Z,13.47
2018-08-28T17:56:12.875Z,12.57
2018-08-28T17:58:41.047Z,16.37
2018-08-28T18:01:09.223Z,15.37
2018-08-28T18:03:37.378Z,31.63
2018-08-28T18:06:05.553Z,43.03
2018-08-28T18:08:33.728Z,23.67
2018-08-28T18:11:01.933Z,12.57
2018-08-28T18:13:30.106Z,10.93
2018-08-28T18:15:58.250Z,10.57
2018-08-28T18:18:26.415Z,10.70
2018-08-28T18:20:54.576Z,10.53
2018-08-28T18:23:22.760Z,10.30
2018-08-28T18:25:50.947Z,10.00
2018-08-28T18:28:19.115Z,10.23
2018-08-28T18:30:47.294Z,11.07
2018-08-28T18:33:15.473Z,11.40
2018-08-28T18:35:43.690Z,12.37
2018-08-28T18:38:11.880Z,14.57
2018-08-28T18:40:40.036Z,13.80
2018-08-28T18:43:08.203Z,10.43
2018-08-28T18:45:36.391Z,10.53
2018-08-28T18:48:04.591Z,11.30
2018-08-28T18:50:32.764Z,18.87
2018-08-28T18:53:00.935Z,22.20
2018-08-28T18:55:29.108Z,15.83
2018-08-28T18:57:57.280Z,15.20
2018-08-28T19:00:25.459Z,14.27
2018-08-28T19:02:53.654Z,15.20
2018-08-28T19:05:21.799Z,12.63
2018-08-28T19:07:50.037Z,11.17
2018-08-28T19:10:18.170Z,11.50
2018-08-28T19:12:46.487Z,12.73
2018-08-28T19:15:15.076Z,12.30
2018-08-28T19:17:43.236Z,10.73
2018-08-28T19:20:11.395Z,10.30
2018-08-28T19:22:39.580Z,10.50
2018-08-28T19:25:07.733Z,10.83
2018-08-28T19:27:35.901Z,9.50
2018-08-28T19:30:04.055Z,10.30
2018-08-28T19:32:32.223Z,10.23
2018-08-28T19:35:00.417Z,10.57
2018-08-28T19:37:28.586Z,9.90
2018-08-28T19:39:56.724Z,9.63
2018-08-28T19:42:24.898Z,10.40
2018-08-28T19:44:53.059Z,10.17
2018-08-28T19:47:21.207Z,10.17
2018-08-28T19:49:49.425Z,9.63
2018-08-28T19:52:17.558Z,9.47
2018-08-28T19:54:45.727Z,9.60
2018-08-28T19:57:13.888Z,10.03
2018-08-28T19:59:42.054Z,9.70
2018-08-28T20:02:10.233Z,9.50
2018-08-28T20:04:38.405Z,9.87
2018-08-28T20:07:06.570Z,9.37
2018-08-28T20:09:34.727Z,9.43
2018-08-28T20:12:02.931Z,9.97
2018-08-28T20:14:31.125Z,10.47
2018-08-28T20:16:59.268Z,9.90
2018-08-28T20:19:27.468Z,9.27
2018-08-28T20:21:55.631Z,10.30
2018-08-28T20:24:23.859Z,10.47
2018-08-28T20:26:52.074Z,10.63
2018-08-28T20:29:20.174Z,10.10
2018-08-28T20:31:48.350Z,10.57
2018-08-28T20:34:16.528Z,10.60
2018-08-28T20:36:44.674Z,9.83
2018-08-28T20:39:12.859Z,10.43
2018-08-28T20:41:41.066Z,10.47
2018-08-28T20:44:09.192Z,9.57
2018-08-28T20:46:37.378Z,11.73
2018-08-28T20:49:05.575Z,10.10
2018-08-28T20:51:34.094Z,11.03
2018-08-28T20:54:02.254Z,10.60
2018-08-28T20:56:30.415Z,10.70
2018-08-28T20:58:58.583Z,10.70
2018-08-28T21:01:26.753Z,11.33
2018-08-28T21:03:54.951Z,11.77
2018-08-28T21:06:23.542Z,11.40
2018-08-28T21:08:51.692Z,11.60
2018-08-28T21:11:19.921Z,11.10
2018-08-28T21:13:48.088Z,11.37
2018-08-28T21:16:16.250Z,11.20
2018-08-28T21:18:44.403Z,11.47
2018-08-28T21:21:12.718Z,11.17
2018-08-28T21:23:40.888Z,11.63
2018-08-28T21:26:09.072Z,11.37
2018-08-28T21:28:37.247Z,10.70
2018-08-28T21:31:05.419Z,11.33
2018-08-28T21:33:33.920Z,11.33
2018-08-28T21:36:02.449Z,11.13
2018-08-28T21:38:30.596Z,11.67
2018-08-28T21:40:58.760Z,11.17
2018-08-28T21:43:27.008Z,11.63
2018-08-28T21:45:55.454Z,11.40
2018-08-28T21:48:23.681Z,11.07
2018-08-28T21:50:51.799Z,10.77
2018-08-28T21:53:20.316Z,10.80
2018-08-28T21:55:48.505Z,10.70
2018-08-28T21:58:16.711Z,11.47
2018-08-28T22:00:48.450Z,11.20
2018-08-28T22:03:16.635Z,11.33
2018-08-28T22:05:44.901Z,11.80
2018-08-28T22:08:13.292Z,11.27
2018-08-28T22:10:41.465Z,11.67
2018-08-28T22:13:09.637Z,11.20
2018-08-28T22:15:37.899Z,11.73
2018-08-28T22:18:06.090Z,11.33
2018-08-28T22:20:34.247Z,12.00
2018-08-28T22:23:02.429Z,11.67
2018-08-28T22:25:30.593Z,11.87
2018-08-28T22:27:58.767Z,11.67
2018-08-28T22:30:26.931Z,10.77
2018-08-28T22:32:55.134Z,11.63
2018-08-28T22:35:23.301Z,11.93
2018-08-28T22:37:51.466Z,11.10
2018-08-28T22:40:19.643Z,10.47
2018-08-28T22:42:48.062Z,9.90
2018-08-28T22:45:16.231Z,11.27
2018-08-28T22:47:44.378Z,11.13
2018-08-28T22:50:12.548Z,11.53
2018-08-28T22:52:40.720Z,11.80
2018-08-28T22:55:08.902Z,11.30
2018-08-28T22:57:37.072Z,12.40
2018-08-28T23:00:05.996Z,12.13
2018-08-28T23:02:34.168Z,12.87
2018-08-28T23:05:02.312Z,12.13
2018-08-28T23:07:30.464Z,11.57
2018-08-28T23:09:58.644Z,11.77
2018-08-28T23:12:26.905Z,12.20
2018-08-28T23:14:55.002Z,12.10
2018-08-28T23:17:23.164Z,12.07
2018-08-28T23:19:51.425Z,12.87
2018-08-28T23:22:19.631Z,12.40
2018-08-28T23:24:48.065Z,11.57
2018-08-28T23:27:16.265Z,11.20
2018-08-28T23:29:44.414Z,12.13
2018-08-28T23:32:12.565Z,11.53
2018-08-28T23:34:40.728Z,12.13
2018-08-28T23:37:09.134Z,11.90
2018-08-28T23:39:37.310Z,11.60
2018-08-28T23:42:05.459Z,12.77
2018-08-28T23:44:33.894Z,12.93
2018-08-28T23:47:02.056Z,11.60
2018-08-28T23:49:30.273Z,12.07
2018-08-28T23:51:58.467Z,12.20
2018-08-28T23:54:26.640Z,12.13
2018-08-28T23:56:54.989Z,12.57
2018-08-28T23:59:23.153Z,12.37
